aviador You're here:

PASM Decoded Metar

SAINT MARYS in AK, USA
Report Time2018-01-21 05:56:00
UTC Time2018-01-21 06:39:45
Flight Rules vfr VFR
Wind020° at 05 kt
W.Decomp.*RWY 35: 4.8 kt HW 1.5 kt RCW
RWY 06: 3.1 kt HW 3.9 kt LCW
W.Rank020° ranks 5
Current wind is below 020° avg. (6.8)
Visibility9999 m
Phenomena:N/A
Clouds:Broken 055 Hf
Expected CloudBase > 1,200 ft AGL from Temp-Dew spread
Ceiling5,500 ft
Temp-19°C (ISA -33)
Dew Point-22°C (77% RH)
AAT-24.5°C
QNH1025 hPa
Density Alt-4,364 ft
Elevation302 ft
Report Wrong Elevation
Raw Report
PASM 210556Z AUTO 02005KT 10SM BKN055 M19/M22 A3027 RMK AO2 SLP271
60000 T11941217 11172 21194 58006 FZRANO=

Extra information for PASM:More info

Metar Taf Metar & Taf Last 4 Metars F.Rules Stats Wind Profile Meteogram Temp Stats Airport Information Weather charts Add Link Nearby VenuesMetar ALERT Operation Metar Decoded Social comments

AIRNAV info for PASM